Weather at Birmingham-Shuttlesworth International Airport

Public forecast

Using degrees Fahrenheit for public forecast. Weather courtesy of forecast.io.

Current aviation weather report (METAR) for Birmingham-Shuttlesworth International Airport

2024/06/20 18:53 (retrieved 23 minutes ago)

KBHM 201853Z 07010G17KT 10SM SCT055 BKN075 33/17 A3027 RMK AO2 SLP240 T03280172

Aviation forecast (TAF) for Birmingham-Shuttlesworth International Airport

2024/06/20 18:33 (retrieved 43 minutes ago)

TAF KBHM 201731Z 2018/2118 11008KT P6SM SCT040 FM210700 00000KT P6SM FEW250